Time;durP1;ratioP1;P1;durP2;ratioP2;P2;SDS_P1;SDS_P2;PMS_P1;PMS_P2;Temp;Humidity;BMP_temperature;BMP_pressure;BME280_temperature;BME280_humidity;BME280_pressure;Samples;Min_cycle;Max_cycle;Signal;HPM_P1;HPM_P2
2023/10/14 00:01:51;;;;;;;14.05;8.73;;;21.60;56.10;;;;;;4989284;28;20258;-80
2023/10/14 00:04:21;;;;;;;18.27;8.90;;;21.60;56.10;;;;;;4998512;28;20207;-80
2023/10/14 00:06:48;;;;;;;15.50;9.07;;;21.70;56.30;;;;;;4998575;28;20209;-83
2023/10/14 00:09:15;;;;;;;13.75;9.07;;;21.60;56.30;;;;;;4998239;28;20600;-79
2023/10/14 00:11:46;;;;;;;15.65;9.40;;;21.60;56.20;;;;;;4997965;28;20211;-79
2023/10/14 00:14:17;;;;;;;15.40;9.07;;;21.60;56.30;;;;;;4997447;28;20560;-80
2023/10/14 00:16:49;;;;;;;18.35;8.93;;;21.60;57.10;;;;;;4997912;28;20250;-80
2023/10/14 00:19:18;;;;;;;15.35;8.68;;;21.60;56.50;;;;;;4997449;28;20227;-79
2023/10/14 00:21:45;;;;;;;16.65;9.55;;;21.60;56.40;;;;;;4997490;28;20193;-80
2023/10/14 00:24:16;;;;;;;15.10;9.32;;;21.60;56.50;;;;;;4997628;28;20247;-80
2023/10/14 00:26:47;;;;;;;14.25;8.63;;;21.60;55.80;;;;;;4996875;28;20212;-80
2023/10/14 00:29:19;;;;;;;14.85;8.93;;;21.60;56.30;;;;;;4997012;28;20216;-79
2023/10/14 00:31:47;;;;;;;15.75;9.43;;;21.60;56.30;;;;;;4997154;28;20200;-79
2023/10/14 00:34:15;;;;;;;15.32;9.70;;;21.60;56.30;;;;;;4996556;28;20207;-79
2023/10/14 00:36:42;;;;;;;13.88;8.60;;;21.60;56.30;;;;;;4997317;28;20199;-79
2023/10/14 00:39:13;;;;;;;13.25;8.98;;;21.60;56.40;;;;;;4982597;28;20247;-79
2023/10/14 00:41:42;;;;;;;15.10;8.45;;;21.50;56.30;;;;;;4998312;28;20675;-79
2023/10/14 00:44:10;;;;;;;15.38;8.80;;;21.50;56.50;;;;;;5013948;28;20243;-79
2023/10/14 00:46:42;;;;;;;13.57;9.15;;;21.60;56.50;;;;;;4997265;28;20229;-79
2023/10/14 00:49:11;;;;;;;12.07;8.55;;;21.50;56.30;;;;;;4997975;28;20644;-79
2023/10/14 00:51:42;;;;;;;13.48;8.32;;;21.50;56.40;;;;;;5001176;28;20288;-79
2023/10/14 00:54:10;;;;;;;14.15;9.25;;;21.50;56.30;;;;;;5001819;28;20284;-79
2023/10/14 00:56:40;;;;;;;12.90;9.07;;;21.60;56.60;;;;;;4985399;28;20251;-79
2023/10/14 00:59:08;;;;;;;15.00;9.20;;;21.50;56.60;;;;;;5018545;28;20224;-79
2023/10/14 01:01:55;;;;;;;13.48;9.30;;;21.50;56.70;;;;;;5001260;28;20204;-79
2023/10/14 01:04:31;;;;;;;13.27;8.88;;;21.50;56.60;;;;;;5001711;28;20196;-79
2023/10/14 01:07:04;;;;;;;14.45;9.13;;;21.50;56.70;;;;;;5018689;28;20591;-79
2023/10/14 01:09:41;;;;;;;14.00;9.07;;;21.50;56.70;;;;;;5000746;28;20217;-79
2023/10/14 01:12:16;;;;;;;14.05;9.15;;;21.50;56.60;;;;;;4984728;28;20201;-79
2023/10/14 01:14:44;;;;;;;12.65;8.48;;;21.50;56.60;;;;;;5000769;28;20196;-79
2023/10/14 01:17:14;;;;;;;13.80;8.75;;;21.60;56.70;;;;;;5000534;28;20193;-79
2023/10/14 01:19:43;;;;;;;13.98;8.95;;;21.60;56.70;;;;;;5000701;28;20294;-79
2023/10/14 01:22:13;;;;;;;13.85;8.35;;;21.50;56.60;;;;;;4984526;28;20291;-79
2023/10/14 01:24:41;;;;;;;12.70;8.55;;;21.60;56.70;;;;;;5000243;28;20201;-79
2023/10/14 01:27:09;;;;;;;12.95;8.45;;;21.50;56.50;;;;;;5000262;28;20208;-79
2023/10/14 01:29:40;;;;;;;14.52;8.65;;;21.50;56.50;;;;;;5000022;28;20242;-79
2023/10/14 01:32:39;;;;;;;11.50;7.90;;;21.60;56.50;;;;;;5000075;28;20203;-79
2023/10/14 01:35:23;;;;;;;12.18;8.30;;;21.50;56.30;;;;;;5017470;28;20192;-79
2023/10/14 01:37:52;;;;;;;12.77;8.07;;;21.50;56.30;;;;;;5000909;28;20208;-79
2023/10/14 01:40:27;;;;;;;15.05;8.77;;;21.50;56.40;;;;;;4999575;28;20236;-79
2023/10/14 01:42:57;;;;;;;11.57;8.10;;;21.60;56.40;;;;;;4984494;28;20185;-79
2023/10/14 01:45:30;;;;;;;11.02;8.10;;;21.50;56.30;;;;;;4999640;28;20204;-79
2023/10/14 01:48:11;;;;;;;13.27;8.48;;;21.50;56.30;;;;;;4983979;28;20212;-79
2023/10/14 01:50:39;;;;;;;12.27;7.95;;;21.60;56.30;;;;;;4999767;28;20221;-79
2023/10/14 01:53:10;;;;;;;10.32;7.85;;;21.60;56.30;;;;;;4999591;28;20235;-79
2023/10/14 01:55:37;;;;;;;11.73;7.35;;;21.60;56.30;;;;;;4999112;28;20247;-79
2023/10/14 01:58:10;;;;;;;10.43;7.85;;;21.60;56.20;;;;;;4999141;28;20564;-79
2023/10/14 02:00:39;;;;;;;11.70;8.55;;;21.60;56.20;;;;;;4998513;28;20228;-79
2023/10/14 02:03:10;;;;;;;11.38;8.20;;;21.60;56.20;;;;;;4998228;28;20193;-79
2023/10/14 02:05:40;;;;;;;11.90;8.27;;;21.60;56.20;;;;;;4998907;28;20251;-79
2023/10/14 02:08:14;;;;;;;10.63;7.68;;;21.50;56.00;;;;;;4998958;28;20216;-79
2023/10/14 02:10:46;;;;;;;11.65;7.72;;;21.60;56.10;;;;;;4999372;28;20259;-79
2023/10/14 02:13:15;;;;;;;11.88;7.95;;;21.60;56.10;;;;;;5000504;28;20200;-79
2023/10/14 02:15:46;;;;;;;11.68;8.07;;;21.60;56.10;;;;;;5003657;28;20196;-81
2023/10/14 02:18:15;;;;;;;12.18;8.25;;;21.60;56.00;;;;;;5004653;28;20195;-81
2023/10/14 02:20:56;;;;;;;12.85;7.85;;;21.60;56.10;;;;;;5001085;28;20283;-80
2023/10/14 02:23:29;;;;;;;12.15;8.00;;;21.60;56.10;;;;;;4986756;28;20232;-80
2023/10/14 02:25:57;;;;;;;11.77;8.05;;;21.60;56.10;;;;;;5000173;28;20612;-80
2023/10/14 02:28:27;;;;;;;12.07;7.85;;;21.60;56.00;;;;;;5000460;28;20216;-80
2023/10/14 02:31:00;;;;;;;12.52;8.45;;;21.60;56.00;;;;;;5000643;28;20302;-80
2023/10/14 02:33:27;;;;;;;11.55;7.70;;;21.60;56.00;;;;;;4984097;28;20572;-80
2023/10/14 02:35:59;;;;;;;10.60;7.10;;;21.60;55.90;;;;;;4998869;28;20201;-80
2023/10/14 02:38:30;;;;;;;11.43;8.13;;;21.60;55.90;;;;;;4998062;28;20188;-80
2023/10/14 02:41:03;;;;;;;10.05;7.25;;;21.60;55.80;;;;;;4998308;28;20225;-80
2023/10/14 02:43:31;;;;;;;9.00;6.93;;;21.60;55.80;;;;;;4982553;28;20629;-80
2023/10/14 02:46:01;;;;;;;10.95;6.97;;;21.60;55.80;;;;;;4982914;28;20227;-80
2023/10/14 02:48:49;;;;;;;10.02;6.93;;;21.60;55.80;;;;;;4999261;28;20240;-80
2023/10/14 02:51:17;;;;;;;12.13;8.07;;;21.60;55.90;;;;;;4999641;28;20208;-80
2023/10/14 02:53:48;;;;;;;9.70;7.03;;;21.60;55.80;;;;;;5000247;28;20212;-80
2023/10/14 02:56:32;;;;;;;10.50;7.10;;;21.60;55.80;;;;;;5000257;28;20196;-80
2023/10/14 02:58:59;;;;;;;11.05;7.80;;;21.60;55.90;;;;;;4999804;28;20220;-80
2023/10/14 03:01:31;;;;;;;8.35;6.78;;;21.60;55.90;;;;;;5000388;28;20270;-80
2023/10/14 03:04:07;;;;;;;9.32;7.07;;;21.60;55.90;;;;;;4999804;28;20201;-80
2023/10/14 03:06:46;;;;;;;9.25;6.80;;;21.60;55.80;;;;;;5000349;28;20537;-80
2023/10/14 03:09:18;;;;;;;8.90;7.03;;;21.60;55.90;;;;;;5000278;28;20233;-80
2023/10/14 03:11:47;;;;;;;8.82;6.90;;;21.60;55.80;;;;;;5000395;28;20636;-80
2023/10/14 03:14:15;;;;;;;9.60;6.93;;;21.60;55.80;;;;;;5000350;28;20219;-80
2023/10/14 03:16:44;;;;;;;10.57;7.03;;;21.60;55.80;;;;;;5000134;28;20300;-80
2023/10/14 03:19:11;;;;;;;9.90;7.20;;;21.70;55.90;;;;;;4999302;28;20200;-80
2023/10/14 03:21:52;;;;;;;9.85;6.90;;;21.70;55.90;;;;;;4999750;28;20201;-80
2023/10/14 03:24:22;;;;;;;11.45;7.38;;;21.80;55.70;;;;;;4999588;28;20200;-80
2023/10/14 03:26:57;;;;;;;9.27;7.00;;;21.80;55.40;;;;;;4998801;28;20201;-80
2023/10/14 03:29:25;;;;;;;9.65;6.72;;;21.90;55.40;;;;;;4997417;28;20230;-80
2023/10/14 03:31:53;;;;;;;10.30;7.45;;;22.00;55.20;;;;;;4981813;28;20196;-80
2023/10/14 03:34:21;;;;;;;9.55;7.30;;;22.00;55.10;;;;;;4998403;28;20207;-80
2023/10/14 03:36:50;;;;;;;8.55;6.60;;;22.10;54.90;;;;;;4998915;28;20197;-80
2023/10/14 03:39:21;;;;;;;8.38;6.40;;;22.10;54.80;;;;;;4998968;28;20220;-80
2023/10/14 03:41:52;;;;;;;8.82;7.03;;;22.20;54.80;;;;;;5000062;28;20249;-79
2023/10/14 03:44:22;;;;;;;9.98;7.07;;;22.10;54.60;;;;;;4999611;28;20203;-79
2023/10/14 03:46:59;;;;;;;8.95;6.55;;;22.20;54.50;;;;;;4999333;28;20288;-79
2023/10/14 03:49:26;;;;;;;8.55;6.60;;;22.20;54.60;;;;;;4999334;28;20232;-79
2023/10/14 03:51:56;;;;;;;9.68;6.20;;;22.20;54.50;;;;;;4999137;28;20219;-79
2023/10/14 03:54:26;;;;;;;8.00;6.20;;;22.20;54.50;;;;;;4998790;28;20227;-79
2023/10/14 03:56:56;;;;;;;9.15;6.68;;;22.30;54.50;;;;;;4999241;28;20197;-79
2023/10/14 03:59:25;;;;;;;8.55;6.30;;;22.20;54.40;;;;;;4999307;28;20212;-79
2023/10/14 04:01:57;;;;;;;9.25;6.68;;;22.30;54.30;;;;;;5098882;22;20222;-75
2023/10/14 04:04:24;;;;;;;10.32;7.13;;;22.20;54.30;;;;;;5052361;28;20208;-75
2023/10/14 04:07:12;;;;;;;8.95;6.68;;;22.30;54.30;;;;;;5052696;28;20223;-75
2023/10/14 04:09:40;;;;;;;9.73;6.35;;;22.30;54.30;;;;;;5052210;28;20322;-75
2023/10/14 04:12:09;;;;;;;8.15;6.30;;;22.30;54.30;;;;;;5052749;28;20199;-75
2023/10/14 04:14:37;;;;;;;8.32;6.20;;;22.30;54.20;;;;;;5052311;28;20279;-75
2023/10/14 04:17:18;;;;;;;9.43;6.53;;;22.30;54.20;;;;;;5052413;28;20219;-75
2023/10/14 04:19:46;;;;;;;7.78;6.28;;;22.30;54.10;;;;;;5052072;28;20770;-75
2023/10/14 04:22:30;;;;;;;6.90;6.03;;;22.30;54.20;;;;;;5052189;28;20195;-75
2023/10/14 04:25:08;;;;;;;7.93;6.10;;;22.30;54.20;;;;;;5053650;28;20210;-75
2023/10/14 04:27:45;;;;;;;9.15;6.60;;;22.30;54.20;;;;;;5057800;28;20195;-75
2023/10/14 04:30:21;;;;;;;9.35;6.60;;;22.30;54.30;;;;;;5058167;28;20573;-75
2023/10/14 04:33:03;;;;;;;8.57;6.35;;;22.20;54.30;;;;;;5056647;28;20661;-75
2023/10/14 04:35:32;;;;;;;8.73;6.40;;;22.20;54.30;;;;;;5056033;28;20199;-75
2023/10/14 04:38:02;;;;;;;7.93;6.40;;;22.20;54.40;;;;;;5056659;28;20192;-75
2023/10/14 04:40:38;;;;;;;8.60;5.82;;;22.20;54.40;;;;;;5057300;28;20686;-75
2023/10/14 04:43:13;;;;;;;8.80;6.35;;;22.20;54.40;;;;;;5056082;28;20673;-75
2023/10/14 04:45:45;;;;;;;7.95;6.68;;;22.20;54.40;;;;;;5055858;28;20213;-75
2023/10/14 04:48:14;;;;;;;6.85;5.95;;;22.20;54.50;;;;;;5057129;28;20203;-75
2023/10/14 04:50:41;;;;;;;7.03;6.18;;;22.20;54.50;;;;;;5055655;28;20310;-75
2023/10/14 04:53:13;;;;;;;8.68;6.05;;;22.20;54.50;;;;;;5056008;28;20206;-75
2023/10/14 04:55:43;;;;;;;8.35;6.03;;;22.20;54.50;;;;;;5056070;28;20206;-75
2023/10/14 04:58:14;;;;;;;7.05;5.50;;;22.20;54.50;;;;;;5055815;28;20202;-75
2023/10/14 05:00:43;;;;;;;8.40;6.35;;;22.20;54.50;;;;;;5055514;28;20280;-75
2023/10/14 05:03:11;;;;;;;7.07;5.93;;;22.20;54.50;;;;;;5057238;28;20187;-75
2023/10/14 05:05:41;;;;;;;8.02;5.80;;;22.20;54.50;;;;;;5056403;28;20203;-75
2023/10/14 05:08:15;;;;;;;6.57;5.18;;;22.20;55.20;;;;;;5055465;28;20241;-75
2023/10/14 05:10:44;;;;;;;7.28;6.00;;;22.20;54.60;;;;;;5055716;28;20219;-75
2023/10/14 05:13:13;;;;;;;8.27;5.88;;;22.20;54.60;;;;;;5056176;28;20202;-75
2023/10/14 05:15:42;;;;;;;8.05;6.22;;;22.20;54.70;;;;;;5055173;28;20253;-75
2023/10/14 05:18:15;;;;;;;8.43;5.60;;;22.20;54.70;;;;;;5055208;28;20231;-75
2023/10/14 05:20:55;;;;;;;7.03;5.43;;;22.20;54.70;;;;;;5055343;28;20233;-75
2023/10/14 05:23:24;;;;;;;7.00;5.68;;;22.10;54.70;;;;;;5056961;28;20176;-75
2023/10/14 05:25:56;;;;;;;7.32;5.85;;;22.10;54.80;;;;;;5055676;28;20199;-75
2023/10/14 05:28:29;;;;;;;7.30;5.80;;;22.10;54.80;;;;;;5055181;28;20196;-75
2023/10/14 05:30:57;;;;;;;6.22;5.57;;;22.10;54.80;;;;;;5055035;28;20219;-75
2023/10/14 05:33:25;;;;;;;7.43;5.40;;;22.10;54.90;;;;;;5054900;28;20195;-75
2023/10/14 05:35:53;;;;;;;6.03;5.40;;;22.10;54.90;;;;;;5037336;28;20199;-75
2023/10/14 05:38:22;;;;;;;7.32;5.68;;;22.10;54.90;;;;;;5054440;28;20264;-75
2023/10/14 05:40:52;;;;;;;7.28;5.78;;;22.10;55.00;;;;;;5054822;28;20215;-75
2023/10/14 05:43:21;;;;;;;6.32;5.63;;;22.10;55.00;;;;;;5054872;28;20187;-75
2023/10/14 05:45:51;;;;;;;6.63;5.32;;;22.10;55.10;;;;;;5055165;28;20237;-75
2023/10/14 05:48:18;;;;;;;7.07;5.60;;;22.00;55.00;;;;;;5038150;28;20254;-75
2023/10/14 05:50:45;;;;;;;7.03;5.72;;;22.00;55.10;;;;;;5038817;28;20219;-76
2023/10/14 05:53:13;;;;;;;8.73;6.00;;;22.00;55.10;;;;;;5056136;28;20195;-76
2023/10/14 05:55:40;;;;;;;6.32;5.28;;;22.00;55.80;;;;;;5055843;28;20192;-76
2023/10/14 05:58:08;;;;;;;7.13;5.75;;;22.00;55.20;;;;;;5055175;28;20219;-76
2023/10/14 06:00:38;;;;;;;7.57;5.40;;;21.90;55.20;;;;;;5054389;28;20615;-76
2023/10/14 06:03:12;;;;;;;6.10;5.30;;;21.90;55.30;;;;;;5054547;28;20199;-75
2023/10/14 06:05:40;;;;;;;7.20;5.40;;;21.90;55.30;;;;;;5039128;28;20292;-75
2023/10/14 06:08:11;;;;;;;6.78;5.45;;;22.00;55.40;;;;;;5054207;28;20203;-75
2023/10/14 06:10:41;;;;;;;8.23;5.63;;;21.90;55.40;;;;;;5054245;28;20313;-75
2023/10/14 06:13:09;;;;;;;7.43;5.55;;;21.90;55.40;;;;;;5054334;28;20203;-75
2023/10/14 06:15:38;;;;;;;7.55;5.97;;;21.90;55.30;;;;;;5054292;28;20698;-75
2023/10/14 06:18:08;;;;;;;7.93;5.50;;;21.90;55.20;;;;;;5054483;28;20202;-75
2023/10/14 06:20:35;;;;;;;6.55;5.30;;;21.90;55.20;;;;;;5054039;28;20216;-75
2023/10/14 06:23:02;;;;;;;6.95;4.95;;;21.90;55.20;;;;;;5055262;28;20270;-75
2023/10/14 06:25:30;;;;;;;7.18;5.38;;;22.00;55.20;;;;;;5054041;28;20231;-75
2023/10/14 06:27:58;;;;;;;5.68;4.90;;;22.00;55.20;;;;;;5054628;28;20318;-75
2023/10/14 06:30:25;;;;;;;6.55;5.50;;;22.00;55.00;;;;;;5053785;28;20235;-75
2023/10/14 06:32:58;;;;;;;6.35;5.60;;;22.00;55.60;;;;;;5055119;28;20292;-75
2023/10/14 06:35:27;;;;;;;6.78;5.20;;;22.00;55.10;;;;;;5054800;28;20195;-75
2023/10/14 06:37:58;;;;;;;6.25;5.40;;;22.00;55.20;;;;;;5037134;28;20222;-75
2023/10/14 06:40:32;;;;;;;6.68;5.18;;;22.00;55.10;;;;;;5053599;28;20582;-75
2023/10/14 06:43:00;;;;;;;5.97;5.15;;;22.00;55.00;;;;;;5055206;28;20179;-75
2023/10/14 06:45:31;;;;;;;6.75;5.15;;;22.00;55.10;;;;;;5055008;28;20202;-75
2023/10/14 06:47:58;;;;;;;6.63;5.25;;;22.00;55.00;;;;;;5053094;28;20561;-75
2023/10/14 06:50:27;;;;;;;5.57;4.95;;;22.00;55.00;;;;;;5054419;28;20226;-76
2023/10/14 06:52:58;;;;;;;5.82;5.05;;;22.00;55.00;;;;;;5054274;28;20282;-76
2023/10/14 06:55:26;;;;;;;6.45;5.30;;;22.00;55.10;;;;;;5053561;28;20305;-76
2023/10/14 06:57:55;;;;;;;6.22;4.90;;;22.00;55.10;;;;;;5053677;28;20210;-76
2023/10/14 07:00:30;;;;;;;7.28;5.15;;;22.00;55.00;;;;;;5055135;28;20214;-76
2023/10/14 07:02:59;;;;;;;7.00;5.00;;;22.00;55.10;;;;;;5054831;28;20201;-76
2023/10/14 07:05:28;;;;;;;6.15;4.90;;;22.00;55.20;;;;;;5053813;28;20290;-76
2023/10/14 07:07:57;;;;;;;5.72;4.82;;;22.00;55.20;;;;;;5036834;28;20286;-76
2023/10/14 07:10:30;;;;;;;5.82;4.95;;;22.00;55.10;;;;;;5053132;28;20717;-76
2023/10/14 07:12:58;;;;;;;5.85;4.88;;;22.10;55.20;;;;;;5053841;28;20203;-76
2023/10/14 07:15:25;;;;;;;7.00;4.95;;;22.10;55.20;;;;;;5053079;28;20191;-76
2023/10/14 07:17:54;;;;;;;6.53;5.03;;;22.10;55.10;;;;;;5052960;28;20200;-76
2023/10/14 07:20:22;;;;;;;5.65;4.82;;;22.10;55.00;;;;;;5054029;28;20215;-76
2023/10/14 07:22:51;;;;;;;6.13;5.10;;;22.10;55.00;;;;;;5054167;28;20223;-76
2023/10/14 07:25:19;;;;;;;6.53;5.22;;;22.20;55.00;;;;;;5052929;28;20210;-76
2023/10/14 07:27:51;;;;;;;5.60;5.00;;;22.20;55.00;;;;;;5054263;28;20290;-76
2023/10/14 07:30:19;;;;;;;6.32;5.10;;;22.20;54.90;;;;;;5052786;28;20226;-76
2023/10/14 07:32:47;;;;;;;6.43;5.10;;;22.30;54.80;;;;;;5052941;28;20206;-76
2023/10/14 07:35:15;;;;;;;5.57;5.07;;;22.30;54.80;;;;;;5052828;28;20198;-77
2023/10/14 07:37:44;;;;;;;6.07;4.97;;;22.40;54.60;;;;;;5052821;28;20293;-78
2023/10/14 07:40:22;;;;;;;6.45;4.90;;;22.40;54.50;;;;;;5052560;28;20264;-76
2023/10/14 07:42:53;;;;;;;5.78;4.90;;;22.50;54.50;;;;;;5054256;28;20569;-77
2023/10/14 07:45:28;;;;;;;7.70;5.38;;;22.50;54.20;;;;;;5052609;28;20191;-77
2023/10/14 07:47:55;;;;;;;5.60;5.10;;;22.60;54.10;;;;;;5052641;28;20194;-77
2023/10/14 07:50:22;;;;;;;6.80;4.93;;;22.70;54.00;;;;;;5052765;28;20677;-77
2023/10/14 07:52:49;;;;;;;5.50;4.85;;;22.70;54.00;;;;;;5053904;28;20198;-77
2023/10/14 07:55:22;;;;;;;5.95;4.60;;;22.70;54.60;;;;;;5052687;28;20199;-77
2023/10/14 07:57:49;;;;;;;5.80;4.60;;;22.80;54.70;;;;;;5052736;28;20196;-76
2023/10/14 08:00:17;;;;;;;7.55;4.80;;;22.80;54.60;;;;;;5035295;28;20218;-76
2023/10/14 08:02:44;;;;;;;7.43;4.80;;;22.90;54.50;;;;;;5052441;28;20653;-76
2023/10/14 08:05:11;;;;;;;7.43;4.97;;;22.90;54.80;;;;;;5053553;28;20203;-76
2023/10/14 08:07:41;;;;;;;10.38;5.25;;;22.80;55.40;;;;;;5052943;28;20680;-76
2023/10/14 08:10:17;;;;;;;6.43;4.85;;;22.80;55.20;;;;;;5052357;28;20222;-75
2023/10/14 08:12:46;;;;;;;6.65;4.53;;;22.80;55.50;;;;;;5052677;28;20249;-75
2023/10/14 08:15:14;;;;;;;6.55;4.65;;;22.80;55.40;;;;;;5052537;28;20200;-75
2023/10/14 08:17:41;;;;;;;6.50;4.50;;;22.80;55.30;;;;;;5053619;28;20274;-75
2023/10/14 08:20:13;;;;;;;6.22;4.40;;;22.70;55.00;;;;;;5052088;28;20219;-76
2023/10/14 08:22:41;;;;;;;5.70;4.20;;;22.70;55.10;;;;;;5053401;28;20229;-76
2023/10/14 08:25:08;;;;;;;8.35;3.97;;;22.60;55.10;;;;;;5052602;28;20203;-77
2023/10/14 08:27:35;;;;;;;4.07;3.55;;;22.60;54.70;;;;;;5052126;28;20199;-77
2023/10/14 08:30:10;;;;;;;7.57;3.90;;;22.60;54.70;;;;;;5052137;28;20227;-76
2023/10/14 08:32:39;;;;;;;4.82;3.00;;;22.60;55.00;;;;;;5053413;28;20201;-76
2023/10/14 08:35:14;;;;;;;6.28;2.78;;;22.60;54.70;;;;;;5052286;28;20241;-77
2023/10/14 08:37:46;;;;;;;8.18;3.05;;;22.60;54.50;;;;;;5052167;28;20693;-77
2023/10/14 08:40:16;;;;;;;2.72;2.50;;;22.60;54.20;;;;;;5052063;28;20285;-77
2023/10/14 08:42:48;;;;;;;4.15;2.70;;;22.60;54.00;;;;;;5052361;28;20713;-76
2023/10/14 08:45:17;;;;;;;4.00;2.67;;;22.70;54.00;;;;;;5052438;28;20196;-76
2023/10/14 08:47:45;;;;;;;5.45;2.65;;;22.70;54.00;;;;;;5053017;28;20206;-76
2023/10/14 08:50:15;;;;;;;3.35;2.58;;;22.80;53.80;;;;;;5052645;28;20219;-76
2023/10/14 08:52:45;;;;;;;5.32;2.70;;;22.90;53.50;;;;;;5052105;28;20192;-76
2023/10/14 08:55:14;;;;;;;4.10;2.38;;;23.00;53.50;;;;;;5052973;28;20195;-76
2023/10/14 08:57:41;;;;;;;5.35;2.70;;;23.20;53.10;;;;;;5052310;28;20195;-76
2023/10/14 09:00:12;;;;;;;4.00;2.90;;;23.40;52.90;;;;;;5051867;28;20219;-76
2023/10/14 09:02:40;;;;;;;3.63;3.00;;;23.60;52.60;;;;;;5052239;28;20195;-76
2023/10/14 09:05:11;;;;;;;5.30;3.15;;;23.70;52.70;;;;;;5052053;28;20192;-76
2023/10/14 09:07:39;;;;;;;3.33;2.70;;;23.90;52.50;;;;;;5070165;28;20254;-76
2023/10/14 09:10:07;;;;;;;4.30;3.10;;;24.00;52.40;;;;;;5054989;28;20674;-76
2023/10/14 09:12:34;;;;;;;4.22;3.05;;;24.10;52.20;;;;;;5057527;28;20198;-76
2023/10/14 09:15:01;;;;;;;4.40;3.30;;;24.20;52.10;;;;;;5055678;28;20295;-76
2023/10/14 09:17:29;;;;;;;4.53;3.50;;;24.30;52.10;;;;;;5056723;28;20199;-76
2023/10/14 09:19:57;;;;;;;6.13;3.50;;;24.20;52.40;;;;;;5055322;28;20645;-76
2023/10/14 09:22:25;;;;;;;7.22;3.42;;;24.20;52.70;;;;;;5056736;28;20203;-76
2023/10/14 09:24:52;;;;;;;5.28;3.33;;;24.10;52.90;;;;;;5056267;28;20234;-76
2023/10/14 09:27:20;;;;;;;4.28;2.50;;;24.00;53.80;;;;;;5055251;28;20210;-75
2023/10/14 09:29:48;;;;;;;2.33;2.10;;;23.80;52.70;;;;;;5054832;28;20313;-75
2023/10/14 09:32:15;;;;;;;3.67;2.65;;;23.80;52.60;;;;;;5055164;28;20253;-75
2023/10/14 09:34:43;;;;;;;5.97;2.13;;;23.60;53.10;;;;;;5046288;28;20779;-75
2023/10/14 09:37:12;;;;;;;5.72;2.50;;;23.60;53.30;;;;;;5075359;28;20202;-75
2023/10/14 09:39:41;;;;;;;3.35;2.13;;;23.60;54.00;;;;;;5075138;28;20313;-75
2023/10/14 09:42:10;;;;;;;2.55;1.98;;;23.50;54.00;;;;;;5076102;28;20544;-75
2023/10/14 09:44:38;;;;;;;3.97;2.42;;;23.50;54.50;;;;;;5076197;28;20216;-75
2023/10/14 09:47:09;;;;;;;2.97;2.10;;;23.50;54.70;;;;;;5075010;28;20229;-75
2023/10/14 09:49:36;;;;;;;3.55;2.00;;;23.50;54.70;;;;;;5074689;28;20253;-75
2023/10/14 09:52:04;;;;;;;3.17;2.17;;;23.40;54.90;;;;;;5075386;28;20199;-75
2023/10/14 09:54:34;;;;;;;3.17;1.70;;;23.40;55.10;;;;;;5074933;28;20221;-75
2023/10/14 09:57:01;;;;;;;2.83;1.90;;;23.30;55.10;;;;;;5075278;28;20650;-75
2023/10/14 09:59:29;;;;;;;3.17;1.75;;;23.30;55.30;;;;;;5074435;28;20231;-76
2023/10/14 10:01:55;;;;;;;2.83;1.70;;;23.30;55.40;;;;;;5074500;28;20572;-76
2023/10/14 10:04:24;;;;;;;2.22;1.80;;;23.30;55.50;;;;;;5118376;22;20225;-81
2023/10/14 10:06:54;;;;;;;3.05;1.80;;;23.20;55.70;;;;;;5077454;28;20204;-81
2023/10/14 10:09:57;;;;;;;2.22;1.60;;;23.20;55.90;;;;;;5078796;28;20218;-81
2023/10/14 10:12:24;;;;;;;2.67;1.60;;;23.20;55.90;;;;;;5079407;28;20243;-81
2023/10/14 10:14:58;;;;;;;2.35;1.67;;;23.20;55.80;;;;;;5078460;28;20194;-81
2023/10/14 10:17:26;;;;;;;1.60;1.40;;;23.20;56.00;;;;;;5062129;28;20189;-81
2023/10/14 10:20:08;;;;;;;2.15;1.20;;;23.20;56.00;;;;;;5079544;28;20216;-81
2023/10/14 10:22:45;;;;;;;3.22;1.50;;;23.20;56.00;;;;;;5078751;28;20342;-82
2023/10/14 10:25:16;;;;;;;2.72;1.30;;;23.20;56.10;;;;;;5080956;28;20205;-82
2023/10/14 10:27:43;;;;;;;1.85;1.40;;;23.10;56.20;;;;;;5081577;28;20194;-82
2023/10/14 10:30:13;;;;;;;1.38;1.23;;;23.20;56.20;;;;;;5064942;28;20222;-81
2023/10/14 10:32:46;;;;;;;3.35;1.30;;;23.10;56.30;;;;;;5081081;28;20196;-81
2023/10/14 10:35:17;;;;;;;1.63;1.17;;;23.10;56.60;;;;;;5080103;28;20232;-82
2023/10/14 10:37:51;;;;;;;2.08;1.35;;;23.10;56.50;;;;;;5079748;28;20239;-82
2023/10/14 10:40:25;;;;;;;2.03;1.20;;;23.10;56.50;;;;;;5079799;28;20217;-82
2023/10/14 10:42:54;;;;;;;1.77;1.15;;;23.10;56.40;;;;;;5080035;28;20190;-82
2023/10/14 10:45:22;;;;;;;1.65;1.10;;;23.10;56.20;;;;;;5080304;28;20198;-83
2023/10/14 10:47:54;;;;;;;1.67;1.35;;;23.10;56.20;;;;;;5078148;28;20198;-82
2023/10/14 10:50:22;;;;;;;1.73;1.30;;;23.10;56.50;;;;;;5097222;28;20210;-82
2023/10/14 10:53:18;;;;;;;2.53;1.35;;;23.10;56.60;;;;;;5079353;28;20226;-82
2023/10/14 10:55:49;;;;;;;0.85;0.82;;;23.00;56.60;;;;;;5078167;28;20331;-83
2023/10/14 10:58:16;;;;;;;1.08;0.70;;;23.00;57.00;;;;;;5078924;28;20202;-82
2023/10/14 11:00:45;;;;;;;0.73;0.73;;;22.90;57.00;;;;;;5078263;28;20684;-82
2023/10/14 11:03:14;;;;;;;0.93;0.80;;;22.80;56.80;;;;;;5078082;28;20637;-82
2023/10/14 11:05:41;;;;;;;1.13;1.02;;;22.90;56.90;;;;;;5078973;28;20296;-83
2023/10/14 11:08:08;;;;;;;2.40;1.08;;;22.90;56.90;;;;;;5080108;28;20209;-81
2023/10/14 11:10:38;;;;;;;1.00;0.80;;;22.90;56.80;;;;;;5079106;28;20225;-81
2023/10/14 11:13:07;;;;;;;1.23;0.82;;;23.00;56.80;;;;;;5078898;28;20197;-83
2023/10/14 11:15:34;;;;;;;2.47;1.17;;;22.90;56.80;;;;;;5078727;28;20194;-83
2023/10/14 11:18:02;;;;;;;0.82;0.82;;;23.00;56.80;;;;;;5077175;28;20644;-81
2023/10/14 11:20:31;;;;;;;1.40;0.90;;;22.90;56.60;;;;;;5078976;28;20225;-80
2023/10/14 11:22:58;;;;;;;1.52;1.00;;;22.90;56.70;;;;;;5080379;28;20195;-79
2023/10/14 11:25:30;;;;;;;1.02;0.98;;;22.90;56.70;;;;;;5080308;28;20198;-80
2023/10/14 11:27:57;;;;;;;1.10;1.02;;;22.90;56.70;;;;;;5080486;28;20192;-80
2023/10/14 11:30:27;;;;;;;1.58;0.90;;;22.90;56.70;;;;;;5080938;28;20630;-80
2023/10/14 11:32:56;;;;;;;1.50;1.00;;;22.90;56.70;;;;;;5081243;28;20186;-82
2023/10/14 11:35:23;;;;;;;1.70;1.30;;;22.90;56.70;;;;;;5081566;28;20634;-81
2023/10/14 11:37:50;;;;;;;1.90;1.00;;;22.90;56.70;;;;;;5081613;28;20253;-83
2023/10/14 11:40:19;;;;;;;1.10;1.00;;;22.80;56.70;;;;;;5079540;28;20222;-82
2023/10/14 11:42:46;;;;;;;1.20;1.08;;;22.80;56.50;;;;;;5077878;28;20198;-82
2023/10/14 11:45:17;;;;;;;0.98;0.98;;;22.80;56.50;;;;;;5085120;28;20201;-82
2023/10/14 11:47:45;;;;;;;1.00;0.88;;;22.80;56.50;;;;;;5092564;28;20200;-83
2023/10/14 11:50:13;;;;;;;0.88;0.88;;;22.80;56.40;;;;;;5093575;28;20229;-82
2023/10/14 11:52:42;;;;;;;1.10;1.00;;;22.90;56.50;;;;;;5088958;28;20189;-83
2023/10/14 11:55:14;;;;;;;0.70;0.70;;;22.80;56.40;;;;;;5081682;28;20198;-83
2023/10/14 11:57:42;;;;;;;1.08;0.93;;;22.90;56.40;;;;;;5082072;28;20198;-82
2023/10/14 12:00:11;;;;;;;3.35;1.20;;;22.90;56.20;;;;;;5081589;28;20210;-81
2023/10/14 12:02:39;;;;;;;2.03;1.10;;;22.90;56.20;;;;;;5083894;28;20198;-82
2023/10/14 12:05:09;;;;;;;1.90;1.08;;;22.90;56.10;;;;;;5077695;28;20308;-82
2023/10/14 12:07:36;;;;;;;2.03;1.10;;;22.90;56.10;;;;;;5078203;28;20198;-83
2023/10/14 12:10:06;;;;;;;3.22;1.15;;;23.00;56.20;;;;;;5079564;28;20214;-83
2023/10/14 12:12:32;;;;;;;3.42;1.10;;;22.90;56.30;;;;;;5081736;28;20308;-83
2023/10/14 12:15:05;;;;;;;1.17;0.98;;;23.00;56.30;;;;;;5081834;28;20198;-83
2023/10/14 12:17:34;;;;;;;1.40;1.17;;;22.90;56.10;;;;;;5081824;28;20191;-83
2023/10/14 12:20:04;;;;;;;1.98;1.10;;;22.80;56.00;;;;;;5081628;28;20228;-83
2023/10/14 12:22:33;;;;;;;2.45;1.10;;;22.90;56.10;;;;;;5081526;28;20194;-83
2023/10/14 12:25:02;;;;;;;1.55;1.23;;;22.90;56.10;;;;;;5081315;28;20198;-83
2023/10/14 12:27:29;;;;;;;1.20;1.10;;;22.90;56.00;;;;;;5081262;28;20202;-83
2023/10/14 12:29:59;;;;;;;1.30;1.17;;;22.80;56.00;;;;;;5080775;28;20224;-83
2023/10/14 12:32:30;;;;;;;1.45;1.17;;;22.80;56.00;;;;;;5080610;28;20237;-83
2023/10/14 12:35:00;;;;;;;2.92;0.88;;;22.80;56.10;;;;;;5080015;28;20182;-82
2023/10/14 12:37:30;;;;;;;1.38;1.20;;;22.80;56.10;;;;;;5082649;28;20241;-81
2023/10/14 12:40:11;;;;;;;1.35;1.10;;;22.80;56.30;;;;;;5084131;28;20222;-82
2023/10/14 12:42:46;;;;;;;2.17;1.20;;;22.70;56.40;;;;;;5086376;28;20237;-82
2023/10/14 12:45:15;;;;;;;1.40;0.90;;;22.70;56.40;;;;;;5081489;28;20589;-82
2023/10/14 12:47:46;;;;;;;1.15;1.02;;;22.70;56.40;;;;;;5084714;28;20198;-83
2023/10/14 12:50:14;;;;;;;1.20;1.10;;;22.70;56.40;;;;;;5084012;28;20225;-82
2023/10/14 12:52:41;;;;;;;1.92;1.25;;;22.60;56.30;;;;;;5083567;28;20268;-82
2023/10/14 12:55:17;;;;;;;1.25;1.05;;;22.60;56.30;;;;;;5083726;28;20201;-82
2023/10/14 12:57:44;;;;;;;1.42;1.15;;;22.60;56.30;;;;;;5082885;28;20197;-82
2023/10/14 13:00:19;;;;;;;1.25;1.15;;;22.60;56.30;;;;;;5080348;28;20218;-83
2023/10/14 13:02:47;;;;;;;1.02;0.95;;;22.60;56.30;;;;;;5080959;28;20205;-83